Current Weather

General Ignacio P Garcia Intl

General Ignacio P Garcia Intl, Mexico (MMHO)

Report from: Sunday, June 26, 2022 10:40 AM MDT
Current time: Sunday, June 26, 2022 11:51 AM MDT

Nearby weather
Weather history
Weather forecast

Temperature34.0°C (93.2°F)
Heat index37.4°C (99.2°F)
Dew point21.0°C (69.8°F)
Winds 5 kts (2.6 m/s, 5.8 mph) East-Southeast (110°)
Visibility10 mi. (16.1 km)
Clouds Scattered clouds 9,000 ft. (2,743 m)
Scattered clouds 20,000 ft. (6,096 m)
Altimeter30.04 in.Hg (1017 mB)
Relative humidity47 %
Density altitude2,361 ft. (720 m)
Flight conditions Visual Meteorological Conditions
Raw dataMMHO 261640Z 11005KT 10SM SCT090 SCT200 34/21 A3004 RMK 8/038 ISOL SC
An error has occurred. This application may no longer respond until reloaded. Reload 🗙